Time;durP1;ratioP1;P1;durP2;ratioP2;P2;SDS_P1;SDS_P2;PMS_P1;PMS_P2;Temp;Humidity;BMP_temperature;BMP_pressure;BME280_temperature;BME280_humidity;BME280_pressure;Samples;Min_cycle;Max_cycle;Signal;HPM_P1;HPM_P2
2021/07/29 00:00:18;;;;;;;1.70;1.60;;;27.30;53.90;;;;;;5047141;28;20076;-69
2021/07/29 00:02:46;;;;;;;2.50;2.30;;;27.30;53.90;;;;;;5047077;28;20056;-69
2021/07/29 00:05:13;;;;;;;1.83;1.73;;;27.30;53.90;;;;;;5052554;28;20047;-70
2021/07/29 00:07:40;;;;;;;2.10;1.95;;;27.30;53.90;;;;;;5067906;28;20703;-64
2021/07/29 00:10:07;;;;;;;2.40;2.20;;;27.30;53.90;;;;;;5067468;28;20047;-69
2021/07/29 00:12:35;;;;;;;1.88;1.77;;;27.30;54.00;;;;;;5067846;28;20044;-65
2021/07/29 00:15:05;;;;;;;2.30;2.10;;;27.20;53.90;;;;;;5069105;28;20123;-64
2021/07/29 00:20:27;;;;;;;2.05;1.88;;;27.20;53.90;;;;;;5055973;28;20052;-69
2021/07/29 00:22:58;;;;;;;2.20;2.10;;;27.20;53.90;;;;;;5071428;28;20128;-64
2021/07/29 00:25:27;;;;;;;2.30;2.10;;;27.20;54.00;;;;;;5070940;28;20055;-70
2021/07/29 00:27:56;;;;;;;2.88;2.15;;;27.20;54.00;;;;;;5071074;28;20084;-70
2021/07/29 00:30:24;;;;;;;2.20;2.10;;;27.20;54.00;;;;;;5070606;28;20088;-69
2021/07/29 00:32:55;;;;;;;2.30;2.10;;;27.20;54.00;;;;;;5071773;28;20041;-65
2021/07/29 00:35:23;;;;;;;3.78;2.15;;;27.20;54.00;;;;;;5070675;28;20041;-64
2021/07/29 00:37:55;;;;;;;2.28;2.08;;;27.20;54.00;;;;;;5070665;28;20049;-70
2021/07/29 00:40:22;;;;;;;2.70;2.45;;;27.20;54.00;;;;;;5070743;28;20416;-70
2021/07/29 00:42:49;;;;;;;1.95;1.85;;;27.20;54.10;;;;;;5068823;28;20044;-65
2021/07/29 00:45:16;;;;;;;2.42;1.75;;;27.20;54.10;;;;;;5070699;28;20055;-70
2021/07/29 00:47:45;;;;;;;3.28;2.42;;;27.20;54.10;;;;;;5070597;28;20076;-70
2021/07/29 00:50:33;;;;;;;1.90;1.80;;;27.20;54.10;;;;;;5069596;28;20696;-70
2021/07/29 00:53:00;;;;;;;2.10;1.80;;;27.20;54.10;;;;;;5070938;28;20044;-70
2021/07/29 00:55:27;;;;;;;2.33;2.15;;;27.20;54.20;;;;;;5070132;28;20094;-70
2021/07/29 00:57:57;;;;;;;1.90;1.80;;;27.20;54.20;;;;;;5070266;28;20071;-64
2021/07/29 01:00:24;;;;;;;1.88;1.77;;;27.20;54.10;;;;;;5070244;28;20084;-70
2021/07/29 01:02:53;;;;;;;2.35;2.15;;;27.20;54.20;;;;;;5070399;28;20044;-65
2021/07/29 01:05:21;;;;;;;2.38;2.28;;;27.20;54.20;;;;;;5063784;28;20060;-70
2021/07/29 01:07:52;;;;;;;2.25;2.00;;;27.20;54.20;;;;;;5050073;28;20482;-70
2021/07/29 01:10:20;;;;;;;2.92;2.15;;;27.20;54.20;;;;;;5050173;28;20228;-70
2021/07/29 01:12:47;;;;;;;2.40;1.80;;;27.20;54.20;;;;;;5050162;28;20107;-69
2021/07/29 01:15:14;;;;;;;2.05;1.85;;;27.20;54.20;;;;;;5065762;28;20098;-70
2021/07/29 01:17:41;;;;;;;1.90;1.80;;;27.20;54.20;;;;;;5070350;28;20072;-70
2021/07/29 01:20:09;;;;;;;1.60;1.50;;;27.20;54.20;;;;;;5069146;28;20047;-65
2021/07/29 01:22:37;;;;;;;1.90;1.67;;;27.20;54.70;;;;;;5070270;28;20048;-65
2021/07/29 01:25:05;;;;;;;2.20;2.10;;;27.10;54.10;;;;;;5069731;28;20091;-70
2021/07/29 01:27:32;;;;;;;2.78;1.90;;;27.20;54.20;;;;;;5068740;28;20078;-70
2021/07/29 01:30:00;;;;;;;1.85;1.75;;;27.20;54.20;;;;;;5069734;28;20056;-70
2021/07/29 01:32:29;;;;;;;2.22;1.80;;;27.10;54.10;;;;;;5069240;28;20725;-70
2021/07/29 01:34:57;;;;;;;2.00;1.90;;;27.10;54.20;;;;;;5070054;28;20080;-70
2021/07/29 01:37:26;;;;;;;2.30;2.10;;;27.10;54.20;;;;;;5069115;28;20075;-70
2021/07/29 01:39:54;;;;;;;1.98;1.80;;;27.10;54.20;;;;;;5069813;28;20045;-70
2021/07/29 01:42:21;;;;;;;1.65;1.55;;;27.10;54.20;;;;;;5069979;28;20072;-65
2021/07/29 01:44:48;;;;;;;1.55;1.45;;;27.10;54.20;;;;;;5069359;28;20052;-70
2021/07/29 01:47:15;;;;;;;2.47;2.28;;;27.10;54.20;;;;;;5069061;28;20412;-70
2021/07/29 01:49:42;;;;;;;2.13;1.95;;;27.10;54.20;;;;;;5067990;28;20136;-70
2021/07/29 01:52:10;;;;;;;1.90;1.80;;;27.10;54.20;;;;;;5069244;28;20542;-65
2021/07/29 01:54:38;;;;;;;1.90;1.80;;;27.10;54.30;;;;;;5069242;28;20079;-70
2021/07/29 01:57:08;;;;;;;2.03;1.85;;;27.10;54.20;;;;;;5069147;28;20048;-70
2021/07/29 01:59:36;;;;;;;2.33;2.00;;;27.10;54.20;;;;;;5069273;28;20049;-70
2021/07/29 02:02:05;;;;;;;1.42;1.40;;;27.10;54.30;;;;;;5067536;28;20104;-70
2021/07/29 02:04:35;;;;;;;1.92;1.83;;;27.10;54.30;;;;;;5069271;28;20044;-64
2021/07/29 02:07:03;;;;;;;1.42;1.33;;;27.10;54.30;;;;;;5048839;28;20115;-65
2021/07/29 02:09:30;;;;;;;1.50;1.42;;;27.10;54.30;;;;;;5048993;28;20080;-70
2021/07/29 02:11:59;;;;;;;1.75;1.65;;;27.10;54.30;;;;;;5047716;28;20084;-70
2021/07/29 02:14:28;;;;;;;2.20;2.00;;;27.10;54.30;;;;;;5047716;28;20049;-64
2021/07/29 02:16:56;;;;;;;1.80;1.70;;;27.00;54.30;;;;;;5048615;28;20053;-70
2021/07/29 02:19:23;;;;;;;2.05;1.95;;;27.00;54.30;;;;;;5048946;28;20083;-70
2021/07/29 02:21:51;;;;;;;1.40;1.40;;;27.00;54.30;;;;;;5048120;28;20140;-70
2021/07/29 02:24:18;;;;;;;2.53;2.17;;;27.00;54.30;;;;;;5049371;28;20045;-70
2021/07/29 02:26:47;;;;;;;2.17;1.98;;;27.00;54.30;;;;;;5048238;28;20053;-70
2021/07/29 02:29:15;;;;;;;1.87;1.77;;;27.10;54.40;;;;;;5048663;28;20498;-69
2021/07/29 02:31:42;;;;;;;1.73;1.63;;;27.10;54.40;;;;;;5048321;28;20544;-70
2021/07/29 02:34:09;;;;;;;2.15;2.05;;;27.10;54.30;;;;;;5047482;28;20049;-70
2021/07/29 02:36:36;;;;;;;2.00;1.80;;;27.10;54.40;;;;;;5048292;28;20063;-70
2021/07/29 02:39:05;;;;;;;1.67;1.58;;;27.10;54.30;;;;;;5048415;28;20602;-69
2021/07/29 02:41:33;;;;;;;1.60;1.50;;;27.10;54.40;;;;;;5048571;28;20049;-65
2021/07/29 02:44:00;;;;;;;1.85;1.75;;;27.10;54.40;;;;;;5047756;28;20053;-70
2021/07/29 02:46:28;;;;;;;2.38;2.03;;;27.10;54.40;;;;;;5048017;28;20080;-70
2021/07/29 02:48:55;;;;;;;1.63;1.52;;;27.00;54.30;;;;;;5049674;28;20049;-65
2021/07/29 02:51:23;;;;;;;1.42;1.40;;;27.00;54.30;;;;;;5048309;28;20045;-70
2021/07/29 02:53:50;;;;;;;2.05;1.95;;;27.10;54.40;;;;;;5049240;28;20136;-70
2021/07/29 02:56:17;;;;;;;1.90;1.80;;;27.00;54.30;;;;;;5046667;28;20073;-70
2021/07/29 02:58:47;;;;;;;1.63;1.52;;;27.00;54.30;;;;;;5046881;28;20091;-70
2021/07/29 03:01:15;;;;;;;1.63;1.52;;;27.00;54.30;;;;;;5048195;28;20529;-69
2021/07/29 03:03:44;;;;;;;1.83;1.73;;;27.00;54.30;;;;;;5047789;28;20049;-70
2021/07/29 03:06:11;;;;;;;1.70;1.60;;;27.00;54.30;;;;;;5048294;28;20696;-70
2021/07/29 03:08:38;;;;;;;1.80;1.70;;;27.00;54.30;;;;;;5047296;28;20132;-65
2021/07/29 03:11:08;;;;;;;1.80;1.70;;;27.00;54.30;;;;;;5048553;28;20111;-69
2021/07/29 03:13:35;;;;;;;2.00;1.90;;;27.00;54.30;;;;;;5046654;28;20127;-70
2021/07/29 03:16:04;;;;;;;1.85;1.75;;;27.00;54.30;;;;;;5048287;28;20049;-70
2021/07/29 03:18:31;;;;;;;1.95;1.77;;;27.00;54.40;;;;;;5047668;28;20061;-70
2021/07/29 03:20:58;;;;;;;1.70;1.60;;;27.00;54.30;;;;;;5047690;28;20461;-70
2021/07/29 03:23:26;;;;;;;1.70;1.60;;;27.00;54.30;;;;;;5047607;28;20204;-70
2021/07/29 03:25:54;;;;;;;1.63;1.52;;;27.00;54.30;;;;;;5047792;28;20095;-69
2021/07/29 03:28:22;;;;;;;2.58;1.77;;;27.00;54.30;;;;;;5047521;28;20135;-64
2021/07/29 03:30:52;;;;;;;1.92;1.83;;;27.00;54.40;;;;;;5047781;28;20052;-68
2021/07/29 03:33:19;;;;;;;1.88;1.77;;;27.00;54.40;;;;;;5047396;28;20044;-69
2021/07/29 03:35:47;;;;;;;1.88;1.77;;;27.00;54.40;;;;;;5047643;28;20059;-69
2021/07/29 03:38:15;;;;;;;1.83;1.73;;;27.00;54.40;;;;;;5047250;28;20124;-69
2021/07/29 03:40:43;;;;;;;1.45;1.42;;;27.00;54.40;;;;;;5047421;28;20435;-65
2021/07/29 03:43:10;;;;;;;2.13;1.60;;;27.00;54.40;;;;;;5047751;28;20494;-69
2021/07/29 03:45:40;;;;;;;2.17;1.98;;;27.00;54.30;;;;;;5047369;28;20045;-69
2021/07/29 03:48:08;;;;;;;1.73;1.63;;;27.00;54.30;;;;;;5047385;28;20501;-69
2021/07/29 03:50:38;;;;;;;1.60;1.50;;;27.00;54.30;;;;;;5050200;28;20136;-69
2021/07/29 03:53:06;;;;;;;1.60;1.50;;;27.00;54.30;;;;;;5052232;28;20060;-70
2021/07/29 03:55:33;;;;;;;1.50;1.40;;;27.00;54.30;;;;;;5051312;28;20047;-69
2021/07/29 03:58:00;;;;;;;1.67;1.58;;;27.00;54.30;;;;;;5051406;28;20049;-70
2021/07/29 04:00:28;;;;;;;2.65;1.75;;;27.00;54.20;;;;;;5051457;28;20131;-69
2021/07/29 04:02:55;;;;;;;1.67;1.58;;;27.00;54.20;;;;;;5050702;28;20053;-70
2021/07/29 04:05:23;;;;;;;1.65;1.55;;;27.10;54.20;;;;;;5058584;28;20044;-69
2021/07/29 04:07:50;;;;;;;1.50;1.40;;;27.10;54.10;;;;;;5071254;28;20131;-69
2021/07/29 04:10:17;;;;;;;1.33;1.20;;;27.10;54.10;;;;;;5071099;28;20540;-70
2021/07/29 04:12:45;;;;;;;1.98;1.80;;;27.10;54.00;;;;;;5070571;28;20183;-64
2021/07/29 04:15:12;;;;;;;1.65;1.55;;;27.10;54.00;;;;;;5071222;28;20045;-69
2021/07/29 04:17:40;;;;;;;1.25;1.25;;;27.10;54.00;;;;;;5070342;28;20045;-70
2021/07/29 04:20:10;;;;;;;1.67;1.58;;;27.10;53.90;;;;;;5069800;28;20084;-64
2021/07/29 04:22:37;;;;;;;1.55;1.45;;;27.20;53.90;;;;;;5070547;28;20048;-69
2021/07/29 04:25:05;;;;;;;1.75;1.65;;;27.20;53.90;;;;;;5071054;28;20451;-69
2021/07/29 04:27:32;;;;;;;1.27;1.17;;;27.20;53.90;;;;;;5071155;28;20044;-70
2021/07/29 04:30:00;;;;;;;1.70;1.60;;;27.20;53.80;;;;;;5070223;28;20091;-69
2021/07/29 04:32:34;;;;;;;1.80;1.38;;;27.20;53.80;;;;;;5070790;28;20084;-70
2021/07/29 04:35:03;;;;;;;1.48;1.38;;;27.20;53.70;;;;;;5070858;28;20115;-68
2021/07/29 04:37:30;;;;;;;1.40;1.40;;;27.20;53.70;;;;;;5069771;28;20052;-70
2021/07/29 04:39:58;;;;;;;1.50;1.40;;;27.30;53.70;;;;;;5061453;28;20067;-70
2021/07/29 04:42:25;;;;;;;1.58;1.48;;;27.30;53.70;;;;;;5052521;28;20124;-65
2021/07/29 04:44:52;;;;;;;2.53;1.45;;;27.30;53.70;;;;;;5060745;28;20619;-65
2021/07/29 04:47:20;;;;;;;1.60;1.50;;;27.30;53.70;;;;;;5058845;28;20139;-70
2021/07/29 04:49:47;;;;;;;1.33;1.30;;;27.30;53.60;;;;;;5058793;28;20083;-70
2021/07/29 04:52:14;;;;;;;1.55;1.45;;;27.30;53.50;;;;;;5060976;28;20074;-69
2021/07/29 04:54:41;;;;;;;1.50;1.40;;;27.30;53.40;;;;;;5067691;28;20076;-70
2021/07/29 04:57:08;;;;;;;1.20;1.20;;;27.40;53.40;;;;;;5058663;28;20044;-69
2021/07/29 04:59:39;;;;;;;1.65;1.55;;;27.40;53.40;;;;;;5064934;28;20041;-70
2021/07/29 05:02:06;;;;;;;1.20;1.10;;;27.40;53.40;;;;;;5059256;28;20067;-70
2021/07/29 05:04:34;;;;;;;1.40;1.30;;;27.40;53.30;;;;;;5056221;28;20048;-70
2021/07/29 05:07:01;;;;;;;1.75;1.63;;;27.40;53.20;;;;;;5064877;28;20123;-65
2021/07/29 05:09:28;;;;;;;1.13;1.10;;;27.40;53.30;;;;;;5051322;28;20059;-66
2021/07/29 05:12:01;;;;;;;1.67;1.38;;;27.30;53.30;;;;;;5050984;28;20134;-70
2021/07/29 05:14:28;;;;;;;1.33;1.27;;;27.20;53.30;;;;;;5048747;28;20581;-65
2021/07/29 05:17:00;;;;;;;1.20;1.20;;;27.10;53.40;;;;;;5051232;28;20127;-65
2021/07/29 05:19:27;;;;;;;0.98;0.98;;;27.00;53.60;;;;;;5057554;28;20040;-69
2021/07/29 05:21:56;;;;;;;1.65;1.50;;;26.80;53.90;;;;;;5058014;28;20032;-69
2021/07/29 05:24:23;;;;;;;1.27;1.17;;;26.70;54.40;;;;;;5055404;28;20132;-67
2021/07/29 05:26:50;;;;;;;1.40;1.30;;;26.40;54.80;;;;;;5049183;28;20040;-65
2021/07/29 05:29:17;;;;;;;1.00;1.00;;;26.10;55.60;;;;;;5054858;28;20068;-70
2021/07/29 05:31:44;;;;;;;1.17;1.17;;;25.80;56.10;;;;;;5052169;28;20052;-64
2021/07/29 05:34:12;;;;;;;2.42;1.33;;;25.50;56.90;;;;;;5053898;28;20048;-72
2021/07/29 05:36:39;;;;;;;1.30;1.20;;;25.30;56.70;;;;;;5053961;28;20505;-65
2021/07/29 05:39:07;;;;;;;1.30;1.13;;;25.00;57.10;;;;;;5058054;28;20432;-69
2021/07/29 05:41:34;;;;;;;1.48;1.38;;;24.90;57.90;;;;;;5052206;28;20085;-70
2021/07/29 05:44:01;;;;;;;1.67;1.58;;;24.70;58.10;;;;;;5052637;28;20051;-63
2021/07/29 05:46:29;;;;;;;1.80;1.40;;;24.50;58.40;;;;;;5048465;28;20123;-61
2021/07/29 05:48:56;;;;;;;1.30;1.20;;;24.30;58.70;;;;;;5051856;28;20068;-62
2021/07/29 05:51:23;;;;;;;1.52;1.42;;;24.20;58.80;;;;;;5051620;28;20135;-68
2021/07/29 05:53:50;;;;;;;1.23;1.13;;;24.10;59.00;;;;;;5053120;28;20037;-69
2021/07/29 05:56:17;;;;;;;1.40;1.30;;;23.90;59.20;;;;;;5047035;28;20140;-67
2021/07/29 05:58:45;;;;;;;1.52;1.42;;;23.80;59.50;;;;;;5050084;28;20599;-63
2021/07/29 06:01:12;;;;;;;1.40;1.20;;;23.70;59.60;;;;;;5047075;28;20049;-65
2021/07/29 06:03:39;;;;;;;1.65;1.55;;;23.60;59.80;;;;;;5048538;28;20036;-64
2021/07/29 06:06:06;;;;;;;1.60;1.50;;;23.60;59.80;;;;;;5047875;28;20059;-64
2021/07/29 06:08:33;;;;;;;2.78;1.55;;;23.60;59.80;;;;;;5047914;28;20055;-65
2021/07/29 06:11:05;;;;;;;1.63;1.52;;;23.60;59.60;;;;;;5049849;28;20044;-65
2021/07/29 06:13:32;;;;;;;3.00;1.58;;;23.50;59.50;;;;;;5053525;28;20061;-64
2021/07/29 06:16:02;;;;;;;1.17;1.08;;;23.50;59.40;;;;;;5044239;28;20068;-65
2021/07/29 06:18:29;;;;;;;2.25;1.58;;;23.50;59.30;;;;;;5051339;28;20096;-67
2021/07/29 06:20:56;;;;;;;2.25;1.63;;;23.50;59.50;;;;;;5046415;28;20443;-66
2021/07/29 06:23:24;;;;;;;2.67;1.67;;;23.50;59.50;;;;;;5044927;28;20127;-67
2021/07/29 06:25:51;;;;;;;1.60;1.50;;;23.50;59.30;;;;;;5043491;28;20052;-68
2021/07/29 06:28:18;;;;;;;1.45;1.35;;;23.50;58.90;;;;;;5054062;28;20671;-69
2021/07/29 06:30:45;;;;;;;1.98;1.60;;;23.60;58.90;;;;;;5055595;28;20079;-66
2021/07/29 06:33:13;;;;;;;1.67;1.40;;;23.60;58.40;;;;;;5053384;28;20553;-65
2021/07/29 06:35:40;;;;;;;1.60;1.40;;;23.60;58.10;;;;;;5053737;28;20033;-70
2021/07/29 06:38:07;;;;;;;3.92;1.50;;;23.60;58.30;;;;;;5056084;28;20464;-66
2021/07/29 06:40:34;;;;;;;2.13;1.67;;;23.60;58.30;;;;;;5055257;28;20114;-65
2021/07/29 06:43:01;;;;;;;3.55;1.83;;;23.60;57.80;;;;;;5054683;28;20553;-64
2021/07/29 06:45:29;;;;;;;5.57;1.90;;;23.70;57.40;;;;;;5052987;28;20744;-70
2021/07/29 06:47:56;;;;;;;3.33;1.70;;;23.70;57.20;;;;;;5058113;28;20124;-64
2021/07/29 06:50:23;;;;;;;1.83;1.60;;;23.70;57.30;;;;;;5052631;28;20071;-70
2021/07/29 06:52:50;;;;;;;2.35;1.70;;;23.80;56.90;;;;;;5051021;28;20072;-64
2021/07/29 06:55:23;;;;;;;1.92;1.75;;;23.80;56.40;;;;;;5054875;28;20036;-69
2021/07/29 06:57:50;;;;;;;1.30;1.30;;;23.90;56.10;;;;;;5047464;28;20053;-64
2021/07/29 07:00:20;;;;;;;1.73;1.60;;;23.90;56.00;;;;;;5052092;28;20227;-64
2021/07/29 07:02:47;;;;;;;1.55;1.40;;;23.90;55.90;;;;;;5048987;28;20546;-63
2021/07/29 07:05:14;;;;;;;1.40;1.30;;;23.90;55.90;;;;;;5048137;28;20156;-64
2021/07/29 07:07:42;;;;;;;1.73;1.50;;;23.90;56.10;;;;;;5052355;28;20124;-65
2021/07/29 07:10:09;;;;;;;4.30;1.90;;;23.90;56.30;;;;;;5049671;28;20075;-65
2021/07/29 07:12:37;;;;;;;1.58;1.35;;;23.90;56.40;;;;;;5057044;28;20757;-64
2021/07/29 07:15:04;;;;;;;1.60;1.50;;;23.90;56.80;;;;;;5052883;28;20164;-63
2021/07/29 07:17:31;;;;;;;2.03;1.30;;;23.80;57.20;;;;;;5056532;28;20076;-65
2021/07/29 07:20:01;;;;;;;1.52;1.38;;;23.70;57.30;;;;;;5050819;28;20578;-61
2021/07/29 07:22:28;;;;;;;1.40;1.27;;;23.70;57.70;;;;;;5054946;28;20074;-62
2021/07/29 07:24:56;;;;;;;3.38;1.60;;;23.70;58.10;;;;;;5052141;28;20106;-62
2021/07/29 07:27:23;;;;;;;3.25;1.45;;;23.70;58.50;;;;;;5051228;28;20053;-66
2021/07/29 07:29:50;;;;;;;1.48;1.38;;;23.70;58.70;;;;;;5042473;28;20174;-65
2021/07/29 07:32:18;;;;;;;1.67;1.58;;;23.70;58.70;;;;;;5050787;28;20438;-67
2021/07/29 07:34:45;;;;;;;1.67;1.30;;;23.70;58.70;;;;;;5051468;28;20131;-64
2021/07/29 07:37:12;;;;;;;1.52;1.15;;;23.70;58.70;;;;;;5053058;28;20048;-64
2021/07/29 07:39:39;;;;;;;1.45;1.35;;;23.70;58.70;;;;;;5054336;28;20068;-62
2021/07/29 07:42:07;;;;;;;2.25;1.38;;;23.70;58.70;;;;;;5052185;28;20048;-66
2021/07/29 07:44:35;;;;;;;1.50;1.40;;;23.70;58.70;;;;;;5049197;28;20060;-69
2021/07/29 07:47:02;;;;;;;1.83;1.63;;;23.70;58.80;;;;;;5044805;28;20755;-65
2021/07/29 07:49:29;;;;;;;1.80;1.70;;;23.70;59.00;;;;;;5049309;28;20044;-65
2021/07/29 07:51:56;;;;;;;1.42;1.33;;;23.80;59.10;;;;;;5050563;28;20076;-63
2021/07/29 07:54:24;;;;;;;2.55;1.40;;;23.80;59.20;;;;;;5035715;28;20579;-62
2021/07/29 07:56:51;;;;;;;1.60;1.50;;;23.80;59.30;;;;;;5049207;28;20920;-61
2021/07/29 07:59:19;;;;;;;1.42;1.30;;;23.80;59.30;;;;;;5052574;28;20174;-59
2021/07/29 08:01:46;;;;;;;2.03;1.80;;;23.80;59.40;;;;;;5051124;28;20104;-62
2021/07/29 08:04:13;;;;;;;1.63;1.48;;;23.80;59.30;;;;;;5052794;28;20047;-60
2021/07/29 08:06:40;;;;;;;1.60;1.50;;;23.90;59.50;;;;;;5051579;28;20095;-59
2021/07/29 08:09:09;;;;;;;1.67;1.58;;;23.90;59.40;;;;;;5052140;28;20074;-59
2021/07/29 08:11:36;;;;;;;1.65;1.50;;;23.90;59.20;;;;;;5050737;28;20040;-64
2021/07/29 08:14:03;;;;;;;1.75;1.65;;;23.90;58.90;;;;;;5052726;28;20406;-60
2021/07/29 08:16:35;;;;;;;;;;;23.90;58.80;;;;;;5053940;28;20040;-63
2021/07/29 08:19:02;;;;;;;2.28;1.63;;;24.00;58.60;;;;;;5054279;28;20027;-59
2021/07/29 08:21:29;;;;;;;1.63;1.10;;;24.00;58.30;;;;;;5049415;28;20049;-60
2021/07/29 08:23:57;;;;;;;1.30;1.20;;;24.00;58.20;;;;;;5052235;28;20045;-64
2021/07/29 08:26:24;;;;;;;2.88;1.50;;;24.10;58.20;;;;;;5048015;28;20124;-64
2021/07/29 08:28:54;;;;;;;1.65;1.55;;;24.00;58.10;;;;;;5051100;28;20082;-65
2021/07/29 08:31:22;;;;;;;2.20;1.45;;;24.10;58.00;;;;;;5053309;28;20131;-65
2021/07/29 08:33:49;;;;;;;1.92;1.70;;;24.10;57.90;;;;;;5053260;28;20037;-63
2021/07/29 08:36:19;;;;;;;1.40;1.30;;;24.10;57.80;;;;;;5054257;28;20150;-65
2021/07/29 08:38:49;;;;;;;1.17;1.15;;;24.10;57.70;;;;;;5060387;28;20044;-72
2021/07/29 08:41:17;;;;;;;1.40;1.30;;;24.10;57.80;;;;;;5054102;28;20517;-60
2021/07/29 08:43:46;;;;;;;1.48;1.30;;;24.10;57.90;;;;;;5054108;28;20071;-68
2021/07/29 08:46:24;;;;;;;1.25;1.10;;;24.10;57.90;;;;;;5052768;28;20075;-64
2021/07/29 08:48:53;;;;;;;1.48;1.38;;;24.10;58.00;;;;;;5048133;28;20413;-66
2021/07/29 08:51:23;;;;;;;2.08;1.73;;;24.10;58.00;;;;;;5044211;28;20037;-62
2021/07/29 08:53:52;;;;;;;1.63;1.30;;;24.10;58.10;;;;;;5052318;28;20493;-68
2021/07/29 08:56:23;;;;;;;1.40;1.30;;;24.10;58.00;;;;;;5050184;28;20051;-61
2021/07/29 08:58:52;;;;;;;1.55;1.38;;;24.10;57.90;;;;;;5053530;28;20053;-61
2021/07/29 09:01:19;;;;;;;2.33;1.10;;;24.10;57.90;;;;;;5054132;28;20135;-63
2021/07/29 09:03:52;;;;;;;2.47;1.70;;;24.10;57.80;;;;;;5051476;28;20051;-66
2021/07/29 09:06:51;;;;;;;1.40;1.30;;;24.20;57.80;;;;;;5050634;28;20128;-61
2021/07/29 09:09:35;;;;;;;1.20;1.10;;;24.20;57.80;;;;;;5051457;28;20102;-61
2021/07/29 09:16:09;;;;;;;;;;;24.20;57.60;;;;;;5058697;28;20044;-67
2021/07/29 09:18:37;;;;;;;1.13;1.10;;;24.20;57.50;;;;;;5056798;28;19943;-61
2021/07/29 09:21:12;;;;;;;1.42;1.33;;;24.20;57.50;;;;;;5057105;28;20052;-62
2021/07/29 09:23:39;;;;;;;1.70;1.60;;;24.20;57.50;;;;;;5058283;28;20075;-61
2021/07/29 09:26:06;;;;;;;4.47;1.77;;;24.20;57.50;;;;;;5049089;28;20058;-62
2021/07/29 09:28:37;;;;;;;1.92;1.40;;;24.20;57.50;;;;;;5060463;28;20167;-62
2021/07/29 09:31:20;;;;;;;2.97;1.30;;;24.20;57.50;;;;;;5057779;28;20452;-64
2021/07/29 09:33:56;;;;;;;1.55;1.42;;;24.10;57.40;;;;;;5051217;28;20094;-62
2021/07/29 09:36:23;;;;;;;2.80;1.20;;;24.20;57.50;;;;;;5055565;28;20056;-69
2021/07/29 09:38:50;;;;;;;3.95;1.85;;;24.10;57.50;;;;;;5051954;28;20088;-62
2021/07/29 09:41:25;;;;;;;1.42;1.33;;;24.10;57.50;;;;;;5052591;28;20501;-68
2021/07/29 09:43:54;;;;;;;3.03;1.27;;;24.10;57.60;;;;;;5055234;28;20120;-68
2021/07/29 09:46:22;;;;;;;3.50;1.42;;;24.10;57.70;;;;;;5050334;28;20405;-65
2021/07/29 09:48:50;;;;;;;1.67;1.52;;;24.10;57.80;;;;;;5052242;28;20864;-69
2021/07/29 09:51:17;;;;;;;3.67;1.13;;;24.10;57.80;;;;;;5055533;28;20059;-70
2021/07/29 09:53:44;;;;;;;2.05;1.50;;;24.10;57.90;;;;;;5049909;28;20567;-61
2021/07/29 09:56:13;;;;;;;2.58;1.45;;;24.10;57.90;;;;;;5056148;28;20109;-64
2021/07/29 09:59:03;;;;;;;1.48;1.38;;;24.10;58.00;;;;;;5054839;28;20059;-63
2021/07/29 10:01:50;;;;;;;1.60;1.47;;;24.10;58.10;;;;;;5059936;28;20098;-64
2021/07/29 10:04:25;;;;;;;1.20;1.05;;;24.10;58.00;;;;;;5059344;28;20041;-64
2021/07/29 10:06:56;;;;;;;2.17;1.23;;;24.10;58.00;;;;;;5058972;28;20164;-64
2021/07/29 10:09:23;;;;;;;1.52;1.10;;;24.10;57.90;;;;;;5053761;28;20044;-68
2021/07/29 10:11:54;;;;;;;2.28;1.40;;;24.10;57.80;;;;;;5058165;28;20121;-65
2021/07/29 10:14:46;;;;;;;1.30;1.20;;;24.10;57.80;;;;;;5055162;28;20071;-64
2021/07/29 10:17:14;;;;;;;1.52;1.42;;;24.10;57.90;;;;;;5057828;28;20036;-65
2021/07/29 10:20:16;;;;;;;1.27;1.15;;;24.10;57.90;;;;;;5054372;28;20047;-65
2021/07/29 10:22:44;;;;;;;1.95;1.27;;;24.10;57.90;;;;;;5066055;28;20128;-65
2021/07/29 10:25:13;;;;;;;1.63;1.52;;;24.00;57.70;;;;;;5058420;28;20602;-65
2021/07/29 10:27:41;;;;;;;1.85;1.33;;;24.10;57.70;;;;;;5061705;28;20789;-66
2021/07/29 10:30:29;;;;;;;1.30;1.20;;;24.00;57.60;;;;;;5054655;28;20075;-65
2021/07/29 10:32:57;;;;;;;1.33;1.23;;;24.00;57.60;;;;;;5062985;28;20047;-65
2021/07/29 10:35:36;;;;;;;1.33;1.20;;;24.00;57.60;;;;;;5060721;28;20127;-63
2021/07/29 10:38:03;;;;;;;2.00;1.52;;;23.90;57.60;;;;;;5063039;28;20044;-65
2021/07/29 10:40:38;;;;;;;1.40;1.30;;;23.90;57.60;;;;;;5062332;28;20688;-64
2021/07/29 10:43:42;;;;;;;1.50;1.40;;;23.90;57.60;;;;;;5052047;28;20047;-61
2021/07/29 10:46:11;;;;;;;13.48;1.90;;;23.90;57.90;;;;;;5051783;28;20090;-63
2021/07/29 10:49:12;;;;;;;1.45;1.33;;;23.90;58.30;;;;;;5050265;28;20072;-64
2021/07/29 10:52:07;;;;;;;1.80;1.30;;;23.90;58.40;;;;;;5048370;28;20137;-64
2021/07/29 10:54:39;;;;;;;1.75;1.65;;;23.90;58.10;;;;;;5048659;28;20135;-63
2021/07/29 10:57:15;;;;;;;2.92;1.20;;;23.90;58.00;;;;;;5052947;28;20382;-63
2021/07/29 10:59:42;;;;;;;1.35;1.23;;;23.90;57.90;;;;;;5056639;28;21165;-62
2021/07/29 11:02:13;;;;;;;1.15;1.13;;;23.90;57.70;;;;;;5056249;28;20045;-64
2021/07/29 11:04:59;;;;;;;1.70;1.60;;;23.90;57.90;;;;;;5056516;28;20378;-62
2021/07/29 11:07:27;;;;;;;1.50;1.40;;;23.90;57.90;;;;;;5056617;28;20036;-63
2021/07/29 11:10:05;;;;;;;1.33;1.20;;;23.90;57.80;;;;;;5060034;28;20044;-62
2021/07/29 11:12:34;;;;;;;1.35;1.25;;;23.90;57.90;;;;;;5056401;28;20047;-61
2021/07/29 11:15:03;;;;;;;1.83;1.42;;;23.90;58.00;;;;;;5053580;28;20082;-68
2021/07/29 11:17:32;;;;;;;1.50;1.40;;;23.90;57.90;;;;;;5046117;28;20140;-62
2021/07/29 11:19:59;;;;;;;1.42;1.33;;;23.90;57.80;;;;;;5050258;28;20041;-62
2021/07/29 11:22:26;;;;;;;1.67;1.58;;;23.90;57.80;;;;;;5054506;28;20053;-67
2021/07/29 11:24:53;;;;;;;1.58;1.48;;;23.90;57.90;;;;;;5054911;28;20782;-62
2021/07/29 11:27:31;;;;;;;1.70;1.60;;;23.90;57.80;;;;;;5056503;28;20131;-62
2021/07/29 11:29:59;;;;;;;1.88;1.40;;;23.90;57.70;;;;;;5048836;28;20048;-60
2021/07/29 11:32:41;;;;;;;1.40;1.30;;;23.90;57.60;;;;;;5047656;28;20128;-67
2021/07/29 11:35:10;;;;;;;1.30;1.20;;;23.90;57.60;;;;;;5057145;28;20094;-67
2021/07/29 11:37:41;;;;;;;1.50;1.40;;;23.90;57.50;;;;;;5053178;28;20052;-61
2021/07/29 11:40:20;;;;;;;2.20;1.55;;;23.90;57.40;;;;;;5055019;28;20063;-66
2021/07/29 11:42:47;;;;;;;2.25;1.35;;;24.00;57.40;;;;;;5052412;28;20503;-62
2021/07/29 11:45:32;;;;;;;1.60;1.50;;;24.00;57.30;;;;;;5057473;28;20205;-61
2021/07/29 11:48:01;;;;;;;1.75;1.65;;;24.00;57.20;;;;;;5044400;28;20531;-62
2021/07/29 11:50:39;;;;;;;2.15;1.73;;;24.00;57.00;;;;;;5046316;28;20087;-62
2021/07/29 11:53:06;;;;;;;2.25;1.67;;;24.00;57.10;;;;;;5048399;28;20127;-67
2021/07/29 11:55:35;;;;;;;1.50;1.40;;;24.00;57.10;;;;;;5052115;28;20090;-62
2021/07/29 11:58:08;;;;;;;1.33;1.20;;;24.00;57.00;;;;;;5055726;28;20058;-60
2021/07/29 12:00:36;;;;;;;1.40;1.30;;;24.00;57.10;;;;;;5052164;28;20618;-66
2021/07/29 12:03:04;;;;;;;1.23;1.13;;;24.00;57.00;;;;;;5055954;28;20051;-60
2021/07/29 12:05:39;;;;;;;2.22;1.52;;;24.00;57.10;;;;;;5052218;28;20127;-61
2021/07/29 12:08:07;;;;;;;1.42;1.30;;;24.10;57.10;;;;;;5062525;28;20047;-62
2021/07/29 12:10:35;;;;;;;3.50;1.40;;;24.10;57.00;;;;;;5056492;28;20098;-63
2021/07/29 12:13:03;;;;;;;2.00;1.50;;;24.10;56.80;;;;;;5059268;28;20122;-60
2021/07/29 12:15:31;;;;;;;3.15;1.40;;;24.10;56.80;;;;;;5059117;28;20076;-64
2021/07/29 12:18:18;;;;;;;1.98;1.70;;;24.10;56.90;;;;;;5058396;28;20142;-59
2021/07/29 12:20:48;;;;;;;2.97;1.30;;;24.10;57.10;;;;;;5058484;28;20046;-63
2021/07/29 12:23:20;;;;;;;1.85;1.50;;;24.20;57.20;;;;;;5057037;28;20055;-59
2021/07/29 12:25:48;;;;;;;1.90;1.65;;;24.20;57.30;;;;;;5060796;28;20052;-60
2021/07/29 12:28:35;;;;;;;1.33;1.23;;;24.20;57.70;;;;;;5056362;28;20771;-62
2021/07/29 12:31:19;;;;;;;1.60;1.50;;;24.30;57.90;;;;;;5052363;28;20051;-58
2021/07/29 12:34:04;;;;;;;1.85;1.75;;;24.30;57.90;;;;;;5052642;28;20122;-59
2021/07/29 12:36:49;;;;;;;1.15;1.10;;;24.40;58.00;;;;;;5062914;28;20041;-61
2021/07/29 12:39:31;;;;;;;1.88;1.60;;;24.50;58.00;;;;;;5059795;28;20104;-61
2021/07/29 12:41:58;;;;;;;2.08;1.73;;;24.50;57.90;;;;;;5062588;28;20052;-57
2021/07/29 12:44:25;;;;;;;3.10;1.40;;;24.50;57.60;;;;;;5062212;28;20045;-61
2021/07/29 12:47:10;;;;;;;1.45;1.30;;;24.50;57.40;;;;;;5058455;28;20090;-60
2021/07/29 12:49:39;;;;;;;1.70;1.60;;;24.50;57.20;;;;;;5056324;28;20076;-59
2021/07/29 12:52:18;;;;;;;1.38;1.10;;;24.50;57.00;;;;;;5053580;28;20052;-60
2021/07/29 12:55:09;;;;;;;1.50;1.40;;;24.50;56.90;;;;;;5055461;28;20051;-61
2021/07/29 12:57:54;;;;;;;2.00;1.70;;;24.50;56.60;;;;;;5053796;28;20394;-61
2021/07/29 13:00:24;;;;;;;1.02;1.00;;;24.50;56.30;;;;;;5057188;28;20052;-66
2021/07/29 13:02:51;;;;;;;;;;;24.50;56.10;;;;;;5055864;28;20807;-61
2021/07/29 13:05:19;;;;;;;1.45;1.35;;;24.50;56.00;;;;;;5056243;28;19952;-61
2021/07/29 13:07:48;;;;;;;5.18;1.70;;;24.50;56.10;;;;;;5059286;28;20123;-61